sensor_id;sensor_type;location;lat;lon;timestamp;pressure;altitude;pressure_sealevel;temperature;humidity
37832;BME280;23671;38.090;-122.570;2022-07-09T00:02:22;101593.56;;;32.26;33.92
37832;BME280;23671;38.090;-122.570;2022-07-09T00:04:49;101589.84;;;32.20;34.10
37832;BME280;23671;38.090;-122.570;2022-07-09T00:07:16;101577.00;;;31.58;29.57
37832;BME280;23671;38.090;-122.570;2022-07-09T00:09:43;101578.94;;;30.93;29.32
37832;BME280;23671;38.090;-122.570;2022-07-09T00:12:10;101575.09;;;30.53;29.68
37832;BME280;23671;38.090;-122.570;2022-07-09T00:14:37;101566.38;;;30.15;30.47
37832;BME280;23671;38.090;-122.570;2022-07-09T00:17:04;101569.84;;;30.22;31.35
37832;BME280;23671;38.090;-122.570;2022-07-09T00:19:32;101571.56;;;30.53;30.80
37832;BME280;23671;38.090;-122.570;2022-07-09T00:21:58;101568.69;;;30.77;31.03
37832;BME280;23671;38.090;-122.570;2022-07-09T00:24:25;101572.09;;;31.02;31.14
37832;BME280;23671;38.090;-122.570;2022-07-09T00:26:52;101575.44;;;31.16;31.43
37832;BME280;23671;38.090;-122.570;2022-07-09T00:29:19;101572.13;;;31.25;31.68
37832;BME280;23671;38.090;-122.570;2022-07-09T00:31:46;101564.63;;;31.32;31.78
37832;BME280;23671;38.090;-122.570;2022-07-09T00:34:13;101565.59;;;31.38;31.92
37832;BME280;23671;38.090;-122.570;2022-07-09T00:36:40;101568.69;;;31.42;32.17
37832;BME280;23671;38.090;-122.570;2022-07-09T00:39:07;101569.53;;;31.42;32.15
37832;BME280;23671;38.090;-122.570;2022-07-09T00:41:34;101564.66;;;31.44;32.25
37832;BME280;23671;38.090;-122.570;2022-07-09T00:44:02;101564.91;;;31.43;32.30
37832;BME280;23671;38.090;-122.570;2022-07-09T00:46:29;101570.38;;;31.43;32.31
37832;BME280;23671;38.090;-122.570;2022-07-09T00:48:56;101567.03;;;31.41;32.40
37832;BME280;23671;38.090;-122.570;2022-07-09T00:51:23;101563.22;;;31.42;32.48
37832;BME280;23671;38.090;-122.570;2022-07-09T00:53:50;101564.56;;;31.39;32.50
37832;BME280;23671;38.090;-122.570;2022-07-09T00:56:18;101561.06;;;31.32;32.39
37832;BME280;23671;38.090;-122.570;2022-07-09T00:58:45;101556.69;;;31.31;32.50
37832;BME280;23671;38.090;-122.570;2022-07-09T01:01:13;101550.38;;;31.30;32.76
37832;BME280;23671;38.090;-122.570;2022-07-09T01:03:40;101556.34;;;31.27;32.87
37832;BME280;23671;38.090;-122.570;2022-07-09T01:06:08;101549.44;;;31.25;32.90
37832;BME280;23671;38.090;-122.570;2022-07-09T01:08:35;101548.25;;;31.21;32.75
37832;BME280;23671;38.090;-122.570;2022-07-09T01:11:02;101544.94;;;31.19;32.99
37832;BME280;23671;38.090;-122.570;2022-07-09T01:13:30;101548.13;;;31.16;32.85
37832;BME280;23671;38.090;-122.570;2022-07-09T01:15:57;101540.66;;;31.11;32.82
37832;BME280;23671;38.090;-122.570;2022-07-09T01:18:24;101540.28;;;31.08;32.80
37832;BME280;23671;38.090;-122.570;2022-07-09T01:20:52;101539.94;;;31.04;32.90
37832;BME280;23671;38.090;-122.570;2022-07-09T01:23:19;101541.22;;;31.02;33.09
37832;BME280;23671;38.090;-122.570;2022-07-09T01:25:46;101544.22;;;31.00;33.08
37832;BME280;23671;38.090;-122.570;2022-07-09T01:28:13;101532.09;;;30.96;33.19
37832;BME280;23671;38.090;-122.570;2022-07-09T01:30:41;101534.47;;;30.93;33.05
37832;BME280;23671;38.090;-122.570;2022-07-09T01:33:08;101546.91;;;30.89;33.07
37832;BME280;23671;38.090;-122.570;2022-07-09T01:35:35;101545.72;;;30.85;32.94
37832;BME280;23671;38.090;-122.570;2022-07-09T01:38:02;101537.34;;;30.80;32.98
37832;BME280;23671;38.090;-122.570;2022-07-09T01:40:29;101537.25;;;30.75;33.37
37832;BME280;23671;38.090;-122.570;2022-07-09T01:42:57;101557.84;;;30.71;33.09
37832;BME280;23671;38.090;-122.570;2022-07-09T01:45:24;101540.53;;;30.65;33.13
37832;BME280;23671;38.090;-122.570;2022-07-09T01:47:51;101544.44;;;30.58;33.55
37832;BME280;23671;38.090;-122.570;2022-07-09T01:50:18;101553.06;;;30.55;33.29
37832;BME280;23671;38.090;-122.570;2022-07-09T01:52:45;101554.22;;;30.47;33.20
37832;BME280;23671;38.090;-122.570;2022-07-09T01:55:12;101555.38;;;30.39;33.53
37832;BME280;23671;38.090;-122.570;2022-07-09T01:57:39;101568.19;;;30.39;33.41
37832;BME280;23671;38.090;-122.570;2022-07-09T02:00:07;101556.78;;;30.30;33.26
37832;BME280;23671;38.090;-122.570;2022-07-09T02:02:34;101565.00;;;30.24;33.46
37832;BME280;23671;38.090;-122.570;2022-07-09T02:05:01;101556.91;;;30.17;33.77
37832;BME280;23671;38.090;-122.570;2022-07-09T02:07:29;101561.22;;;30.07;33.54
37832;BME280;23671;38.090;-122.570;2022-07-09T02:09:56;101572.00;;;30.02;33.53
37832;BME280;23671;38.090;-122.570;2022-07-09T02:12:23;101561.63;;;29.92;33.73
37832;BME280;23671;38.090;-122.570;2022-07-09T02:14:50;101565.50;;;29.85;33.47
37832;BME280;23671;38.090;-122.570;2022-07-09T02:17:17;101569.75;;;29.81;33.33
37832;BME280;23671;38.090;-122.570;2022-07-09T02:19:44;101569.41;;;29.71;33.42
37832;BME280;23671;38.090;-122.570;2022-07-09T02:22:11;101579.72;;;29.62;34.23
37832;BME280;23671;38.090;-122.570;2022-07-09T02:24:38;101571.03;;;29.53;33.90
37832;BME280;23671;38.090;-122.570;2022-07-09T02:27:06;101572.78;;;29.48;33.82
37832;BME280;23671;38.090;-122.570;2022-07-09T02:29:33;101575.56;;;29.41;34.00
37832;BME280;23671;38.090;-122.570;2022-07-09T02:32:00;101575.41;;;29.36;33.65
37832;BME280;23671;38.090;-122.570;2022-07-09T02:34:27;101578.41;;;29.28;33.76
37832;BME280;23671;38.090;-122.570;2022-07-09T02:36:54;101583.28;;;29.20;33.19
37832;BME280;23671;38.090;-122.570;2022-07-09T02:39:21;101583.72;;;29.17;33.90
37832;BME280;23671;38.090;-122.570;2022-07-09T02:41:48;101582.50;;;29.06;33.79
37832;BME280;23671;38.090;-122.570;2022-07-09T02:44:15;101589.06;;;28.99;33.67
37832;BME280;23671;38.090;-122.570;2022-07-09T02:46:42;101595.00;;;28.89;34.10
37832;BME280;23671;38.090;-122.570;2022-07-09T02:49:09;101600.50;;;28.83;33.74
37832;BME280;23671;38.090;-122.570;2022-07-09T02:51:37;101598.81;;;28.82;33.35
37832;BME280;23671;38.090;-122.570;2022-07-09T02:54:04;101598.88;;;28.75;33.59
37832;BME280;23671;38.090;-122.570;2022-07-09T02:56:32;101602.88;;;28.66;33.47
37832;BME280;23671;38.090;-122.570;2022-07-09T02:58:59;101597.69;;;28.58;33.73
37832;BME280;23671;38.090;-122.570;2022-07-09T03:01:26;101606.28;;;28.48;33.50
37832;BME280;23671;38.090;-122.570;2022-07-09T03:03:54;101613.66;;;28.41;32.91
37832;BME280;23671;38.090;-122.570;2022-07-09T03:06:22;101601.75;;;28.36;33.71
37832;BME280;23671;38.090;-122.570;2022-07-09T03:08:49;101603.88;;;28.27;33.14
37832;BME280;23671;38.090;-122.570;2022-07-09T03:11:16;101605.59;;;28.22;33.21
37832;BME280;23671;38.090;-122.570;2022-07-09T03:13:43;101601.84;;;28.16;33.34
37832;BME280;23671;38.090;-122.570;2022-07-09T03:16:10;101611.69;;;28.04;33.00
37832;BME280;23671;38.090;-122.570;2022-07-09T03:18:38;101605.25;;;27.99;33.12
37832;BME280;23671;38.090;-122.570;2022-07-09T03:21:06;101604.41;;;27.92;33.59
37832;BME280;23671;38.090;-122.570;2022-07-09T03:23:35;101605.28;;;27.72;35.47
37832;BME280;23671;38.090;-122.570;2022-07-09T03:26:03;101601.97;;;27.70;35.49
37832;BME280;23671;38.090;-122.570;2022-07-09T03:28:31;101602.34;;;27.67;35.03
37832;BME280;23671;38.090;-122.570;2022-07-09T03:31:01;101609.69;;;27.60;33.79
37832;BME280;23671;38.090;-122.570;2022-07-09T03:33:28;101604.88;;;27.56;33.57
37832;BME280;23671;38.090;-122.570;2022-07-09T03:35:55;101598.44;;;27.50;33.72
37832;BME280;23671;38.090;-122.570;2022-07-09T03:38:23;101609.72;;;27.47;33.44
37832;BME280;23671;38.090;-122.570;2022-07-09T03:40:51;101605.97;;;27.42;33.24
37832;BME280;23671;38.090;-122.570;2022-07-09T03:43:19;101610.75;;;27.33;32.80
37832;BME280;23671;38.090;-122.570;2022-07-09T03:45:46;101613.41;;;27.27;32.89
37832;BME280;23671;38.090;-122.570;2022-07-09T03:48:13;101613.84;;;27.17;32.89
37832;BME280;23671;38.090;-122.570;2022-07-09T03:50:40;101623.84;;;27.10;33.04
37832;BME280;23671;38.090;-122.570;2022-07-09T03:53:07;101622.41;;;27.01;32.74
37832;BME280;23671;38.090;-122.570;2022-07-09T03:55:35;101630.09;;;26.91;32.71
37832;BME280;23671;38.090;-122.570;2022-07-09T03:58:02;101616.75;;;26.89;32.90
37832;BME280;23671;38.090;-122.570;2022-07-09T04:00:29;101623.38;;;26.80;32.88
37832;BME280;23671;38.090;-122.570;2022-07-09T04:02:56;101630.03;;;26.71;32.57
37832;BME280;23671;38.090;-122.570;2022-07-09T04:05:23;101629.38;;;26.63;32.87
37832;BME280;23671;38.090;-122.570;2022-07-09T04:07:50;101637.69;;;26.55;32.93
37832;BME280;23671;38.090;-122.570;2022-07-09T04:10:17;101635.56;;;26.50;32.78
37832;BME280;23671;38.090;-122.570;2022-07-09T04:12:44;101634.28;;;26.40;32.97
37832;BME280;23671;38.090;-122.570;2022-07-09T04:15:11;101635.47;;;26.31;32.96
37832;BME280;23671;38.090;-122.570;2022-07-09T04:17:38;101637.13;;;26.25;33.28
37832;BME280;23671;38.090;-122.570;2022-07-09T04:20:05;101641.88;;;26.17;33.10
37832;BME280;23671;38.090;-122.570;2022-07-09T04:22:32;101644.13;;;26.13;33.21
37832;BME280;23671;38.090;-122.570;2022-07-09T04:24:59;101640.19;;;26.09;33.43
37832;BME280;23671;38.090;-122.570;2022-07-09T04:27:27;101648.03;;;26.04;33.33
37832;BME280;23671;38.090;-122.570;2022-07-09T04:29:54;101651.09;;;25.94;33.10
37832;BME280;23671;38.090;-122.570;2022-07-09T04:32:21;101664.56;;;25.88;33.35
37832;BME280;23671;38.090;-122.570;2022-07-09T04:34:48;101663.06;;;25.79;33.59
37832;BME280;23671;38.090;-122.570;2022-07-09T04:37:15;101671.16;;;25.72;33.37
37832;BME280;23671;38.090;-122.570;2022-07-09T04:39:42;101671.09;;;25.66;33.42
37832;BME280;23671;38.090;-122.570;2022-07-09T04:42:09;101676.50;;;25.66;33.62
37832;BME280;23671;38.090;-122.570;2022-07-09T04:44:39;101680.38;;;25.57;33.67
37832;BME280;23671;38.090;-122.570;2022-07-09T04:47:11;101673.63;;;25.46;33.43
37832;BME280;23671;38.090;-122.570;2022-07-09T04:49:38;101691.91;;;25.44;33.76
37832;BME280;23671;38.090;-122.570;2022-07-09T04:52:06;101695.97;;;25.34;33.87
37832;BME280;23671;38.090;-122.570;2022-07-09T04:54:33;101693.75;;;25.22;34.13
37832;BME280;23671;38.090;-122.570;2022-07-09T04:57:00;101706.81;;;25.19;33.66
37832;BME280;23671;38.090;-122.570;2022-07-09T04:59:27;101719.25;;;25.13;34.22
37832;BME280;23671;38.090;-122.570;2022-07-09T05:01:54;101712.28;;;25.04;34.14
37832;BME280;23671;38.090;-122.570;2022-07-09T05:04:21;101728.88;;;25.01;34.27
37832;BME280;23671;38.090;-122.570;2022-07-09T05:06:48;101726.28;;;24.93;34.39
37832;BME280;23671;38.090;-122.570;2022-07-09T05:09:15;101725.19;;;24.88;34.47
37832;BME280;23671;38.090;-122.570;2022-07-09T05:11:42;101734.22;;;24.80;34.27
37832;BME280;23671;38.090;-122.570;2022-07-09T05:14:09;101732.13;;;24.76;34.45
37832;BME280;23671;38.090;-122.570;2022-07-09T05:16:35;101728.63;;;24.67;34.83
37832;BME280;23671;38.090;-122.570;2022-07-09T05:19:03;101728.00;;;24.65;34.66
37832;BME280;23671;38.090;-122.570;2022-07-09T05:21:30;101735.06;;;24.52;34.99
37832;BME280;23671;38.090;-122.570;2022-07-09T05:23:56;101732.75;;;24.49;35.03
37832;BME280;23671;38.090;-122.570;2022-07-09T05:26:23;101734.72;;;24.40;35.16
37832;BME280;23671;38.090;-122.570;2022-07-09T05:28:50;101734.63;;;24.33;35.16
37832;BME280;23671;38.090;-122.570;2022-07-09T05:31:17;101733.69;;;24.26;35.14
37832;BME280;23671;38.090;-122.570;2022-07-09T05:33:44;101734.88;;;24.24;35.19
37832;BME280;23671;38.090;-122.570;2022-07-09T05:36:11;101735.47;;;24.19;35.10
37832;BME280;23671;38.090;-122.570;2022-07-09T05:38:38;101738.69;;;24.15;35.28
37832;BME280;23671;38.090;-122.570;2022-07-09T05:41:05;101735.47;;;24.19;35.31
37832;BME280;23671;38.090;-122.570;2022-07-09T05:43:33;101736.19;;;24.13;35.16
37832;BME280;23671;38.090;-122.570;2022-07-09T05:46:00;101731.19;;;24.10;35.17
37832;BME280;23671;38.090;-122.570;2022-07-09T05:48:27;101736.66;;;24.02;35.40
37832;BME280;23671;38.090;-122.570;2022-07-09T05:50:54;101740.25;;;23.95;35.36
37832;BME280;23671;38.090;-122.570;2022-07-09T05:53:21;101730.53;;;23.86;35.53
37832;BME280;23671;38.090;-122.570;2022-07-09T05:55:48;101729.59;;;23.79;35.53
37832;BME280;23671;38.090;-122.570;2022-07-09T05:58:16;101746.69;;;23.71;35.85
37832;BME280;23671;38.090;-122.570;2022-07-09T06:00:43;101750.09;;;23.65;35.69
37832;BME280;23671;38.090;-122.570;2022-07-09T06:03:10;101748.13;;;23.59;35.79
37832;BME280;23671;38.090;-122.570;2022-07-09T06:05:37;101749.03;;;23.52;35.99
37832;BME280;23671;38.090;-122.570;2022-07-09T06:08:04;101747.06;;;23.45;36.11
37832;BME280;23671;38.090;-122.570;2022-07-09T06:10:31;101741.19;;;23.42;36.12
37832;BME280;23671;38.090;-122.570;2022-07-09T06:12:58;101747.09;;;23.37;36.05
37832;BME280;23671;38.090;-122.570;2022-07-09T06:15:25;101749.69;;;23.31;36.22
37832;BME280;23671;38.090;-122.570;2022-07-09T06:17:52;101742.28;;;23.25;36.33
37832;BME280;23671;38.090;-122.570;2022-07-09T06:20:19;101740.13;;;23.20;36.30
37832;BME280;23671;38.090;-122.570;2022-07-09T06:22:46;101744.19;;;23.16;36.60
37832;BME280;23671;38.090;-122.570;2022-07-09T06:25:13;101742.84;;;23.12;36.34
37832;BME280;23671;38.090;-122.570;2022-07-09T06:27:41;101736.50;;;23.05;36.57
37832;BME280;23671;38.090;-122.570;2022-07-09T06:30:08;101742.59;;;22.99;36.65
37832;BME280;23671;38.090;-122.570;2022-07-09T06:32:36;101748.19;;;22.98;36.84
37832;BME280;23671;38.090;-122.570;2022-07-09T06:35:03;101750.72;;;22.91;36.90
37832;BME280;23671;38.090;-122.570;2022-07-09T06:37:30;101749.59;;;22.86;36.74
37832;BME280;23671;38.090;-122.570;2022-07-09T06:39:57;101755.50;;;22.81;36.91
37832;BME280;23671;38.090;-122.570;2022-07-09T06:42:26;101746.09;;;22.77;36.84
37832;BME280;23671;38.090;-122.570;2022-07-09T06:44:53;101752.19;;;22.71;36.92
37832;BME280;23671;38.090;-122.570;2022-07-09T06:47:20;101755.22;;;22.68;37.07
37832;BME280;23671;38.090;-122.570;2022-07-09T06:49:47;101749.69;;;22.62;37.16
37832;BME280;23671;38.090;-122.570;2022-07-09T06:52:14;101755.75;;;22.55;37.26
37832;BME280;23671;38.090;-122.570;2022-07-09T06:54:41;101755.25;;;22.52;37.10
37832;BME280;23671;38.090;-122.570;2022-07-09T06:57:08;101757.44;;;22.48;37.22
37832;BME280;23671;38.090;-122.570;2022-07-09T06:59:36;101751.75;;;22.43;37.39
37832;BME280;23671;38.090;-122.570;2022-07-09T07:02:03;101749.22;;;22.42;37.22
37832;BME280;23671;38.090;-122.570;2022-07-09T07:04:31;101748.75;;;22.38;37.34
37832;BME280;23671;38.090;-122.570;2022-07-09T07:06:58;101757.31;;;22.34;37.39
37832;BME280;23671;38.090;-122.570;2022-07-09T07:09:25;101754.31;;;22.29;37.48
37832;BME280;23671;38.090;-122.570;2022-07-09T07:11:52;101758.00;;;22.28;37.36
37832;BME280;23671;38.090;-122.570;2022-07-09T07:14:19;101763.91;;;22.23;37.42
37832;BME280;23671;38.090;-122.570;2022-07-09T07:16:46;101770.13;;;22.16;37.75
37832;BME280;23671;38.090;-122.570;2022-07-09T07:19:14;101762.22;;;22.14;37.46
37832;BME280;23671;38.090;-122.570;2022-07-09T07:21:59;101768.28;;;22.08;37.76
37832;BME280;23671;38.090;-122.570;2022-07-09T07:24:26;101764.94;;;22.06;37.76
37832;BME280;23671;38.090;-122.570;2022-07-09T07:26:53;101758.56;;;21.99;37.77
37832;BME280;23671;38.090;-122.570;2022-07-09T07:29:22;101763.28;;;21.97;38.01
37832;BME280;23671;38.090;-122.570;2022-07-09T07:31:49;101761.75;;;21.95;37.65
37832;BME280;23671;38.090;-122.570;2022-07-09T07:34:17;101758.75;;;21.90;37.97
37832;BME280;23671;38.090;-122.570;2022-07-09T07:36:46;101761.13;;;21.85;37.84
37832;BME280;23671;38.090;-122.570;2022-07-09T07:39:13;101771.47;;;21.80;37.88
37832;BME280;23671;38.090;-122.570;2022-07-09T07:41:39;101769.81;;;21.79;37.88
37832;BME280;23671;38.090;-122.570;2022-07-09T07:44:06;101762.41;;;21.73;37.94
37832;BME280;23671;38.090;-122.570;2022-07-09T07:46:33;101764.25;;;21.72;37.96
37832;BME280;23671;38.090;-122.570;2022-07-09T07:49:00;101760.41;;;21.66;38.07
37832;BME280;23671;38.090;-122.570;2022-07-09T07:51:27;101763.25;;;21.65;37.98
37832;BME280;23671;38.090;-122.570;2022-07-09T07:53:54;101763.09;;;21.66;37.79
37832;BME280;23671;38.090;-122.570;2022-07-09T07:56:21;101768.28;;;21.60;37.96
37832;BME280;23671;38.090;-122.570;2022-07-09T07:58:48;101763.56;;;21.54;38.03
37832;BME280;23671;38.090;-122.570;2022-07-09T08:01:15;101762.75;;;21.53;38.07
37832;BME280;23671;38.090;-122.570;2022-07-09T08:03:42;101769.28;;;21.51;38.07
37832;BME280;23671;38.090;-122.570;2022-07-09T08:06:09;101764.91;;;21.42;38.37
37832;BME280;23671;38.090;-122.570;2022-07-09T08:08:36;101766.25;;;21.38;38.33
37832;BME280;23671;38.090;-122.570;2022-07-09T08:11:03;101770.09;;;21.35;38.41
37832;BME280;23671;38.090;-122.570;2022-07-09T08:13:30;101765.22;;;21.31;38.37
37832;BME280;23671;38.090;-122.570;2022-07-09T08:15:57;101771.09;;;21.26;38.45
37832;BME280;23671;38.090;-122.570;2022-07-09T08:18:24;101769.25;;;21.27;38.39
37832;BME280;23671;38.090;-122.570;2022-07-09T08:20:51;101765.22;;;21.23;38.37
37832;BME280;23671;38.090;-122.570;2022-07-09T08:23:18;101768.22;;;21.20;38.46
37832;BME280;23671;38.090;-122.570;2022-07-09T08:25:45;101772.09;;;21.17;38.52
37832;BME280;23671;38.090;-122.570;2022-07-09T08:28:12;101778.94;;;21.12;38.74
37832;BME280;23671;38.090;-122.570;2022-07-09T08:30:39;101771.22;;;21.09;38.75
37832;BME280;23671;38.090;-122.570;2022-07-09T08:33:06;101768.03;;;21.05;38.51
37832;BME280;23671;38.090;-122.570;2022-07-09T08:35:33;101772.91;;;21.02;38.69
37832;BME280;23671;38.090;-122.570;2022-07-09T08:38:00;101770.88;;;21.04;38.64
37832;BME280;23671;38.090;-122.570;2022-07-09T08:40:27;101777.88;;;20.97;38.84
37832;BME280;23671;38.090;-122.570;2022-07-09T08:42:55;101788.25;;;20.92;38.85
37832;BME280;23671;38.090;-122.570;2022-07-09T08:45:24;101784.72;;;20.91;38.88
37832;BME280;23671;38.090;-122.570;2022-07-09T08:47:53;101786.91;;;20.88;39.05
37832;BME280;23671;38.090;-122.570;2022-07-09T08:50:21;101780.16;;;20.83;39.12
37832;BME280;23671;38.090;-122.570;2022-07-09T08:52:50;101777.81;;;20.80;39.24
37832;BME280;23671;38.090;-122.570;2022-07-09T08:55:18;101778.81;;;20.79;39.17
37832;BME280;23671;38.090;-122.570;2022-07-09T08:57:45;101785.38;;;20.85;38.96
37832;BME280;23671;38.090;-122.570;2022-07-09T09:00:12;101781.81;;;20.76;39.15
37832;BME280;23671;38.090;-122.570;2022-07-09T09:02:39;101781.97;;;20.75;39.07
37832;BME280;23671;38.090;-122.570;2022-07-09T09:05:13;101779.41;;;20.65;39.24
37832;BME280;23671;38.090;-122.570;2022-07-09T09:07:41;101776.22;;;20.62;39.36
37832;BME280;23671;38.090;-122.570;2022-07-09T09:10:19;101785.28;;;20.61;39.51
37832;BME280;23671;38.090;-122.570;2022-07-09T09:12:46;101778.88;;;20.62;39.25
37832;BME280;23671;38.090;-122.570;2022-07-09T09:15:17;101783.91;;;20.57;39.26
37832;BME280;23671;38.090;-122.570;2022-07-09T09:17:46;101784.06;;;20.55;39.06
37832;BME280;23671;38.090;-122.570;2022-07-09T09:20:17;101777.66;;;20.48;39.31
37832;BME280;23671;38.090;-122.570;2022-07-09T09:22:52;101779.34;;;20.49;39.25
37832;BME280;23671;38.090;-122.570;2022-07-09T09:25:21;101791.22;;;20.47;39.34
37832;BME280;23671;38.090;-122.570;2022-07-09T09:27:55;101798.94;;;20.42;39.45
37832;BME280;23671;38.090;-122.570;2022-07-09T09:30:24;101796.72;;;20.37;39.30
37832;BME280;23671;38.090;-122.570;2022-07-09T09:33:00;101794.34;;;20.34;39.29
37832;BME280;23671;38.090;-122.570;2022-07-09T09:35:29;101794.19;;;20.36;39.34
37832;BME280;23671;38.090;-122.570;2022-07-09T09:37:57;101787.28;;;20.33;39.47
37832;BME280;23671;38.090;-122.570;2022-07-09T09:40:24;101791.28;;;20.29;39.43
37832;BME280;23671;38.090;-122.570;2022-07-09T09:42:52;101796.13;;;20.26;39.50
37832;BME280;23671;38.090;-122.570;2022-07-09T09:45:20;101798.66;;;20.27;39.43
37832;BME280;23671;38.090;-122.570;2022-07-09T09:47:51;101802.34;;;20.26;39.42
37832;BME280;23671;38.090;-122.570;2022-07-09T09:50:25;101798.97;;;20.24;39.35
37832;BME280;23671;38.090;-122.570;2022-07-09T09:52:53;101799.44;;;20.20;39.54
37832;BME280;23671;38.090;-122.570;2022-07-09T09:55:22;101802.13;;;20.20;39.38
37832;BME280;23671;38.090;-122.570;2022-07-09T09:57:49;101800.44;;;20.19;39.41
37832;BME280;23671;38.090;-122.570;2022-07-09T10:00:17;101802.63;;;20.23;39.43
37832;BME280;23671;38.090;-122.570;2022-07-09T10:02:46;101802.28;;;20.18;39.28
37832;BME280;23671;38.090;-122.570;2022-07-09T10:05:13;101803.56;;;20.14;39.62
37832;BME280;23671;38.090;-122.570;2022-07-09T10:07:41;101805.22;;;20.15;39.35
37832;BME280;23671;38.090;-122.570;2022-07-09T10:10:16;101806.88;;;20.08;39.43
37832;BME280;23671;38.090;-122.570;2022-07-09T10:12:43;101805.38;;;20.14;39.24
37832;BME280;23671;38.090;-122.570;2022-07-09T10:15:24;101809.09;;;20.13;39.26
37832;BME280;23671;38.090;-122.570;2022-07-09T10:17:53;101808.16;;;20.04;39.45
37832;BME280;23671;38.090;-122.570;2022-07-09T10:20:33;101792.09;;;20.04;39.44
37832;BME280;23671;38.090;-122.570;2022-07-09T10:23:01;101799.59;;;20.01;39.39
37832;BME280;23671;38.090;-122.570;2022-07-09T10:25:41;101801.59;;;19.99;39.23
37832;BME280;23671;38.090;-122.570;2022-07-09T10:28:16;101807.13;;;19.97;39.41
37832;BME280;23671;38.090;-122.570;2022-07-09T10:30:44;101798.06;;;19.98;39.34
37832;BME280;23671;38.090;-122.570;2022-07-09T10:35:52;101802.38;;;19.91;39.61
37832;BME280;23671;38.090;-122.570;2022-07-09T10:38:21;101798.00;;;19.90;39.51
37832;BME280;23671;38.090;-122.570;2022-07-09T10:41:00;101793.63;;;19.89;39.64
37832;BME280;23671;38.090;-122.570;2022-07-09T10:43:50;101798.78;;;19.82;39.68
37832;BME280;23671;38.090;-122.570;2022-07-09T10:46:18;101794.41;;;19.81;39.80
37832;BME280;23671;38.090;-122.570;2022-07-09T10:48:47;101797.09;;;19.81;39.80
37832;BME280;23671;38.090;-122.570;2022-07-09T10:51:22;101789.50;;;19.77;39.77
37832;BME280;23671;38.090;-122.570;2022-07-09T10:53:50;101798.56;;;19.76;39.96
37832;BME280;23671;38.090;-122.570;2022-07-09T10:56:21;101799.69;;;19.73;39.95
37832;BME280;23671;38.090;-122.570;2022-07-09T10:58:49;101799.88;;;19.72;40.03
37832;BME280;23671;38.090;-122.570;2022-07-09T11:01:23;101797.19;;;19.72;40.06
37832;BME280;23671;38.090;-122.570;2022-07-09T11:03:53;101794.78;;;19.69;40.34
37832;BME280;23671;38.090;-122.570;2022-07-09T11:06:21;101804.81;;;19.67;40.35
37832;BME280;23671;38.090;-122.570;2022-07-09T11:08:48;101792.44;;;19.66;40.35
37832;BME280;23671;38.090;-122.570;2022-07-09T11:11:24;101802.78;;;19.61;40.49
37832;BME280;23671;38.090;-122.570;2022-07-09T11:13:54;101804.28;;;19.63;40.21
37832;BME280;23671;38.090;-122.570;2022-07-09T11:16:23;101798.13;;;19.63;40.39
37832;BME280;23671;38.090;-122.570;2022-07-09T11:18:51;101807.13;;;19.62;40.48
37832;BME280;23671;38.090;-122.570;2022-07-09T11:21:27;101813.50;;;19.61;40.67
37832;BME280;23671;38.090;-122.570;2022-07-09T11:23:54;101806.59;;;19.58;40.56
37832;BME280;23671;38.090;-122.570;2022-07-09T11:26:21;101807.28;;;19.43;41.03
37832;BME280;23671;38.090;-122.570;2022-07-09T11:28:48;101805.53;;;19.51;40.63
37832;BME280;23671;38.090;-122.570;2022-07-09T11:31:17;101802.78;;;19.43;40.72
37832;BME280;23671;38.090;-122.570;2022-07-09T11:33:44;101808.13;;;19.43;40.86
37832;BME280;23671;38.090;-122.570;2022-07-09T11:36:39;101806.97;;;19.46;40.79
37832;BME280;23671;38.090;-122.570;2022-07-09T11:39:06;101814.31;;;19.44;40.73
37832;BME280;23671;38.090;-122.570;2022-07-09T11:41:44;101802.94;;;19.42;40.84
37832;BME280;23671;38.090;-122.570;2022-07-09T11:44:18;101804.50;;;19.35;40.93
37832;BME280;23671;38.090;-122.570;2022-07-09T11:46:57;101805.38;;;19.35;40.70
37832;BME280;23671;38.090;-122.570;2022-07-09T11:49:36;101810.88;;;19.34;40.88
37832;BME280;23671;38.090;-122.570;2022-07-09T11:52:04;101818.06;;;19.33;40.83
37832;BME280;23671;38.090;-122.570;2022-07-09T11:54:31;101817.34;;;19.31;40.77
37832;BME280;23671;38.090;-122.570;2022-07-09T11:56:58;101819.16;;;19.31;40.87
37832;BME280;23671;38.090;-122.570;2022-07-09T11:59:31;101825.97;;;19.25;40.81
37832;BME280;23671;38.090;-122.570;2022-07-09T12:02:00;101831.31;;;19.25;41.01
37832;BME280;23671;38.090;-122.570;2022-07-09T12:04:30;101834.16;;;19.24;40.95
37832;BME280;23671;38.090;-122.570;2022-07-09T12:06:57;101836.84;;;19.24;40.82
37832;BME280;23671;38.090;-122.570;2022-07-09T12:09:31;101845.56;;;19.26;40.84
37832;BME280;23671;38.090;-122.570;2022-07-09T12:11:59;101852.81;;;19.16;40.94
37832;BME280;23671;38.090;-122.570;2022-07-09T12:14:26;101851.56;;;19.10;41.18
37832;BME280;23671;38.090;-122.570;2022-07-09T12:16:53;101840.84;;;19.10;40.87
37832;BME280;23671;38.090;-122.570;2022-07-09T12:19:20;101851.41;;;19.12;40.92
37832;BME280;23671;38.090;-122.570;2022-07-09T12:21:47;101846.38;;;19.09;40.95
37832;BME280;23671;38.090;-122.570;2022-07-09T12:24:14;101846.41;;;18.99;41.03
37832;BME280;23671;38.090;-122.570;2022-07-09T12:26:41;101844.28;;;19.02;41.02
37832;BME280;23671;38.090;-122.570;2022-07-09T12:29:08;101852.91;;;18.96;41.32